Time;durP1;ratioP1;P1;durP2;ratioP2;P2;SDS_P1;SDS_P2;PMS_P1;PMS_P2;Temp;Humidity;BMP_temperature;BMP_pressure;BME280_temperature;BME280_humidity;BME280_pressure;Samples;Min_cycle;Max_cycle;Signal;HPM_P1;HPM_P2
2022/05/05 00:01:33;;;;;;;8.17;7.40;;;;;;;15.61;60.31;98009.38;8500464;27;20221;-74
2022/05/05 00:05:36;;;;;;;8.73;7.83;;;;;;;15.62;60.35;98005.81;8518685;27;20235;-74
2022/05/05 00:09:39;;;;;;;9.40;8.50;;;;;;;15.62;60.27;98011.03;8518396;27;20240;-74
2022/05/05 00:18:04;;;;;;;7.70;7.00;;;;;;;15.69;59.24;98018.47;8518257;27;20240;-75
2022/05/05 00:22:07;;;;;;;7.13;6.53;;;;;;;15.62;58.64;98020.66;8518346;27;20228;-75
2022/05/05 00:26:10;;;;;;;9.13;6.97;;;;;;;15.61;58.57;98026.78;8518131;27;20239;-74
2022/05/05 00:30:14;;;;;;;8.40;7.20;;;;;;;15.43;59.38;98024.41;8518172;27;20237;-74
2022/05/05 00:34:19;;;;;;;7.20;6.50;;;;;;;15.52;59.13;98027.41;8517838;27;20229;-74
2022/05/05 00:38:22;;;;;;;7.50;6.80;;;;;;;15.50;59.31;98022.28;8517075;27;20231;-73
2022/05/05 00:42:26;;;;;;;8.60;7.30;;;;;;;15.52;59.31;98015.19;8517574;27;20515;-73
2022/05/05 00:46:29;;;;;;;8.50;7.40;;;;;;;15.50;59.90;98026.63;8516391;27;20528;-75
2022/05/05 00:50:34;;;;;;;9.43;7.47;;;;;;;15.50;59.82;98026.63;8517233;27;20236;-74
2022/05/05 00:54:38;;;;;;;8.20;7.50;;;;;;;15.52;60.19;98019.56;8517070;27;20266;-75
2022/05/05 00:58:43;;;;;;;8.33;7.63;;;;;;;15.43;60.14;98021.81;8517034;27;23882;-74
2022/05/05 01:02:46;;;;;;;8.50;7.60;;;;;;;15.52;59.88;98022.19;8513086;27;20414;-75
2022/05/05 01:06:51;;;;;;;8.90;8.00;;;;;;;15.55;59.89;98027.19;8499623;27;20222;-75
2022/05/05 01:10:54;;;;;;;8.90;8.00;;;;;;;15.54;59.67;98031.59;8499300;27;20398;-74
2022/05/05 01:14:57;;;;;;;9.30;8.40;;;;;;;15.57;60.18;98033.16;8499439;27;20535;-75
2022/05/05 01:19:00;;;;;;;9.60;8.70;;;;;;;15.43;60.32;98027.03;8499134;27;20536;-75
2022/05/05 01:23:04;;;;;;;8.37;7.57;;;;;;;15.50;60.42;98039.69;8499061;27;20237;-74
2022/05/05 01:31:28;;;;;;;9.03;8.20;;;;;;;15.52;60.83;98046.50;8481163;28;20401;-74
2022/05/05 01:35:31;;;;;;;9.13;8.33;;;;;;;15.42;61.10;98041.03;8481741;28;20231;-74
2022/05/05 01:39:35;;;;;;;10.47;9.20;;;;;;;15.42;60.96;98041.03;8481612;27;20238;-75
2022/05/05 01:43:39;;;;;;;11.30;9.93;;;;;;;15.52;60.86;98046.50;8481645;28;20221;-74
2022/05/05 01:47:42;;;;;;;10.13;9.27;;;;;;;15.52;61.07;98043.91;8481696;28;20540;-75
2022/05/05 01:51:45;;;;;;;11.73;10.57;;;;;;;15.51;61.04;98039.59;8481562;28;20228;-75
2022/05/05 01:55:49;;;;;;;11.53;10.13;;;;;;;15.60;61.06;98048.63;8481083;28;20378;-74
2022/05/05 01:59:52;;;;;;;11.80;10.70;;;;;;;15.57;61.14;98046.19;8481085;28;20236;-74
2022/05/05 02:03:56;;;;;;;13.87;12.50;;;;;;;15.50;61.76;98044.91;8498139;27;20237;-74
2022/05/05 02:07:59;;;;;;;13.97;11.77;;;;;;;15.54;61.74;98046.41;8498136;27;20548;-74
2022/05/05 02:12:04;;;;;;;12.93;11.67;;;;;;;15.56;61.68;98045.38;8498065;27;20306;-75
2022/05/05 02:16:08;;;;;;;12.83;11.50;;;;;;;15.56;61.83;98049.75;8497868;27;20255;-74
2022/05/05 02:20:12;;;;;;;12.90;11.67;;;;;;;15.57;61.37;98043.59;8497896;27;20237;-74
2022/05/05 02:24:17;;;;;;;13.00;11.73;;;;;;;15.55;61.71;98045.47;8497746;27;20225;-74
2022/05/05 02:28:22;;;;;;;13.40;12.03;;;;;;;15.54;61.81;98049.84;8497751;27;20252;-74
2022/05/05 02:32:25;;;;;;;12.30;11.30;;;;;;;15.49;61.95;98051.91;8489132;27;20225;-74
2022/05/05 02:40:48;;;;;;;12.43;11.30;;;;;;;15.55;61.67;98040.25;8497338;27;20376;-75
2022/05/05 02:44:53;;;;;;;12.57;11.40;;;;;;;15.53;61.80;98053.38;8497484;27;20231;-75
2022/05/05 02:48:56;;;;;;;13.23;12.03;;;;;;;15.61;61.76;98053.75;8497490;27;20243;-75
2022/05/05 02:52:59;;;;;;;14.00;12.53;;;;;;;15.60;61.78;98053.84;8497349;27;20235;-75
2022/05/05 02:57:02;;;;;;;14.20;12.90;;;;;;;15.55;62.03;98051.50;8497379;27;20400;-74
2022/05/05 03:01:08;;;;;;;14.47;13.07;;;;;;;15.53;62.03;98048.16;8497134;27;20236;-74
2022/05/05 03:05:11;;;;;;;13.83;12.47;;;;;;;15.58;62.10;98056.56;8497217;27;20229;-74
2022/05/05 03:09:14;;;;;;;15.10;13.43;;;;;;;15.60;62.22;98059.06;8501271;27;20244;-74
2022/05/05 03:13:17;;;;;;;14.57;13.17;;;;;;;15.56;62.36;98055.81;8503223;27;20432;-74
2022/05/05 03:17:22;;;;;;;15.67;13.97;;;;;;;15.34;62.89;98047.66;8503277;27;20432;-74
2022/05/05 03:21:25;;;;;;;14.80;13.50;;;;;;;15.39;62.75;98050.81;8485659;27;20531;-74
2022/05/05 03:25:27;;;;;;;16.00;14.57;;;;;;;15.23;63.70;98046.56;8485897;27;20393;-74
2022/05/05 03:29:30;;;;;;;14.10;12.80;;;;;;;15.40;63.48;98040.28;8485776;28;20268;-74
2022/05/05 03:33:36;;;;;;;15.17;13.77;;;;;;;15.47;62.86;98040.72;8485833;28;20229;-74
2022/05/05 03:37:40;;;;;;;15.57;14.07;;;;;;;15.52;63.08;98056.13;8485453;27;20233;-74
2022/05/05 03:41:42;;;;;;;16.27;14.57;;;;;;;15.62;63.06;98052.81;8485337;27;20226;-76
2022/05/05 03:45:45;;;;;;;15.93;14.30;;;;;;;15.53;62.86;98050.78;8485260;28;20225;-74
2022/05/05 03:49:50;;;;;;;16.73;14.97;;;;;;;15.28;63.67;98059.31;8485266;28;20222;-74
2022/05/05 03:53:53;;;;;;;14.90;13.60;;;;;;;15.49;63.46;98061.50;8485060;28;20229;-74
2022/05/05 03:57:56;;;;;;;16.63;14.37;;;;;;;15.52;63.08;98070.00;8484801;28;20424;-75
2022/05/05 04:02:00;;;;;;;15.40;13.90;;;;;;;15.39;63.59;98056.88;8484777;28;20225;-74
2022/05/05 04:06:06;;;;;;;14.97;13.17;;;;;;;15.40;63.59;98075.97;8483751;27;20241;-74
2022/05/05 04:10:09;;;;;;;15.57;13.97;;;;;;;15.57;63.20;98080.13;8499250;27;20236;-75
2022/05/05 04:14:12;;;;;;;15.90;14.50;;;;;;;15.52;63.27;98080.44;8501475;27;20240;-74
2022/05/05 04:18:15;;;;;;;16.33;14.70;;;;;;;15.58;63.72;98079.22;8501122;27;20288;-74
2022/05/05 04:22:20;;;;;;;18.07;14.80;;;;;;;15.58;63.46;98084.44;8501188;27;20519;-74
2022/05/05 04:26:24;;;;;;;15.80;14.30;;;;;;;15.68;63.28;98089.91;8483654;28;20234;-74
2022/05/05 04:30:27;;;;;;;19.77;16.53;;;;;;;15.69;63.62;98100.25;8483778;28;20237;-72
2022/05/05 04:34:31;;;;;;;21.60;19.43;;;;;;;15.66;63.92;98107.44;8483730;27;20240;-73
2022/05/05 04:38:36;;;;;;;22.07;19.93;;;;;;;15.72;63.88;98104.44;8483557;28;20237;-73
2022/05/05 04:42:39;;;;;;;22.47;20.10;;;;;;;15.71;63.62;98106.22;8483428;27;20544;-73
2022/05/05 04:46:42;;;;;;;23.47;21.07;;;;;;;15.72;63.63;98114.88;8483169;28;20580;-76
2022/05/05 04:50:45;;;;;;;31.00;26.23;;;;;;;15.70;64.01;98109.75;8482991;27;20520;-74
2022/05/05 04:54:49;;;;;;;31.20;27.90;;;;;;;15.78;63.53;98118.00;8483052;28;20236;-73
2022/05/05 04:58:53;;;;;;;31.43;27.30;;;;;;;15.77;63.35;98129.34;8482732;28;20351;-73
2022/05/05 05:02:56;;;;;;;27.13;24.43;;;;;;;15.87;63.27;98134.00;8482390;28;20229;-74
2022/05/05 05:06:59;;;;;;;29.07;26.23;;;;;;;15.91;63.35;98138.09;8482680;27;20233;-73
2022/05/05 05:11:03;;;;;;;26.83;24.33;;;;;;;15.93;63.23;98134.44;8482311;28;20499;-74
2022/05/05 05:15:08;;;;;;;28.47;25.60;;;;;;;15.89;63.56;98139.97;8482411;28;20233;-73
2022/05/05 05:19:11;;;;;;;27.37;24.47;;;;;;;15.95;63.54;98139.56;8482351;27;20234;-73
2022/05/05 05:23:20;;;;;;;29.23;26.33;;;;;;;15.91;63.50;98145.94;8482159;28;20233;-73
2022/05/05 05:27:25;;;;;;;28.20;24.40;;;;;;;15.93;63.35;98157.94;8498431;27;20235;-73
2022/05/05 05:31:29;;;;;;;27.53;24.70;;;;;;;15.99;63.23;98156.72;8498431;27;20344;-73
2022/05/05 05:35:32;;;;;;;29.87;27.03;;;;;;;15.92;63.65;98147.63;8498636;27;20339;-73
2022/05/05 05:39:35;;;;;;;28.73;25.73;;;;;;;15.95;63.28;98148.22;8498632;27;20240;-73
2022/05/05 05:43:40;;;;;;;27.53;24.50;;;;;;;16.06;63.46;98151.97;8498553;27;20391;-73
2022/05/05 05:47:43;;;;;;;26.50;23.87;;;;;;;16.06;63.53;98144.94;8498615;27;20229;-74
2022/05/05 05:51:47;;;;;;;29.03;25.80;;;;;;;16.05;63.05;98158.09;8498241;27;20228;-74
2022/05/05 05:55:50;;;;;;;27.60;24.90;;;;;;;16.03;63.29;98161.66;8498360;27;20221;-74
2022/05/05 05:59:55;;;;;;;36.43;32.67;;;;;;;16.13;62.98;98174.16;8498089;27;20228;-73
2022/05/05 06:03:58;;;;;;;29.07;26.17;;;;;;;16.08;63.47;98158.75;8498268;27;20255;-74
2022/05/05 06:08:01;;;;;;;27.37;24.53;;;;;;;16.08;63.79;98160.53;8498273;27;20247;-74
2022/05/05 06:12:05;;;;;;;26.30;23.80;;;;;;;16.25;63.23;98169.91;8498017;27;20242;-73
2022/05/05 06:16:10;;;;;;;26.17;23.73;;;;;;;16.25;62.80;98172.53;8498031;27;20531;-73
2022/05/05 06:20:14;;;;;;;25.83;23.47;;;;;;;16.31;62.74;98177.34;8497999;27;20240;-73
2022/05/05 06:24:17;;;;;;;26.40;23.70;;;;;;;16.39;62.04;98178.53;8497679;27;20235;-73
2022/05/05 06:28:20;;;;;;;26.73;24.17;;;;;;;16.41;62.25;98183.66;8497558;27;20299;-73
2022/05/05 06:32:24;;;;;;;27.80;25.10;;;;;;;16.52;62.24;98175.13;8497125;27;20244;-73
2022/05/05 06:36:27;;;;;;;26.33;23.90;;;;;;;16.55;62.59;98183.59;8497683;27;20252;-73
2022/05/05 06:40:30;;;;;;;25.87;23.13;;;;;;;16.65;62.01;98181.22;8497486;27;20233;-73
2022/05/05 06:44:33;;;;;;;29.47;26.67;;;;;;;16.71;61.88;98178.19;8502632;27;20229;-73
2022/05/05 06:48:37;;;;;;;69.33;53.27;;;;;;;16.87;61.70;98174.59;8503960;27;20229;-73
2022/05/05 06:52:40;;;;;;;27.17;24.47;;;;;;;16.71;62.26;98179.97;8504031;27;20240;-75
2022/05/05 06:56:43;;;;;;;28.50;25.67;;;;;;;16.95;61.80;98183.59;8503923;27;20251;-74
2022/05/05 07:05:24;;;;;;;25.73;23.07;;;;;;;17.03;61.62;98184.88;8503713;27;20240;-73
2022/05/05 07:13:47;;;;;;;23.87;21.67;;;;;;;17.33;60.93;98189.81;8503529;27;20231;-74
2022/05/05 07:17:50;;;;;;;22.80;20.57;;;;;;;17.45;60.53;98196.81;8503345;27;20224;-73
2022/05/05 07:21:55;;;;;;;23.20;21.00;;;;;;;17.53;60.03;98197.13;8503169;27;20235;-73
2022/05/05 07:25:58;;;;;;;23.73;21.30;;;;;;;17.57;59.87;98187.25;8502970;27;20240;-74
2022/05/05 07:30:01;;;;;;;22.60;20.40;;;;;;;17.67;60.12;98187.47;8502905;27;20251;-74
2022/05/05 07:34:04;;;;;;;9.37;6.63;;;;;;;18.62;61.35;98188.56;8502635;27;20240;-73
2022/05/05 07:38:09;;;;;;;11.53;9.23;;;;;;;19.43;58.25;98194.72;8518163;27;20229;-73
2022/05/05 07:42:12;;;;;;;11.83;10.60;;;;;;;19.68;56.59;98203.34;8519519;27;20237;-73
2022/05/05 07:46:17;;;;;;;14.47;12.13;;;;;;;19.78;54.85;98216.63;8519607;27;20228;-73
2022/05/05 07:50:20;;;;;;;13.47;11.73;;;;;;;19.78;54.16;98212.22;8519340;27;20233;-73
2022/05/05 07:54:39;;;;;;;12.97;11.67;;;;;;;19.92;53.27;98219.84;8518121;27;20225;-73
2022/05/05 07:58:42;;;;;;;12.00;10.90;;;;;;;20.11;52.57;98227.13;8518957;27;20248;-75
2022/05/05 08:02:45;;;;;;;15.80;11.77;;;;;;;19.97;52.73;98226.53;8515318;27;20230;-74
2022/05/05 08:06:48;;;;;;;17.13;12.20;;;;;;;19.89;52.57;98240.28;8501579;27;20417;-74
2022/05/05 08:10:53;;;;;;;12.60;11.30;;;;;;;20.07;52.05;98243.25;8501097;27;20233;-73
2022/05/05 08:14:57;;;;;;;13.53;12.23;;;;;;;19.88;52.51;98247.31;8501450;27;20261;-73
2022/05/05 08:19:00;;;;;;;12.93;11.57;;;;;;;20.13;51.86;98255.09;8501121;27;20235;-73
2022/05/05 08:23:03;;;;;;;12.73;11.30;;;;;;;20.23;51.68;98253.38;8501054;27;20235;-74
2022/05/05 08:31:31;;;;;;;12.77;10.80;;;;;;;20.25;50.97;98256.72;8500705;27;20396;-74
2022/05/05 08:35:34;;;;;;;11.43;10.23;;;;;;;20.29;50.86;98258.97;8500419;27;20229;-74
2022/05/05 08:39:38;;;;;;;12.13;10.53;;;;;;;20.43;50.50;98267.59;8500839;27;20255;-74
2022/05/05 08:43:42;;;;;;;10.43;9.43;;;;;;;20.44;50.50;98264.00;8500187;27;20236;-76
2022/05/05 08:48:06;;;;;;;11.57;9.47;;;;;;;20.62;50.37;98273.06;8500376;27;20228;-74
2022/05/05 08:52:11;;;;;;;10.47;9.47;;;;;;;20.75;50.61;98269.44;8500242;27;20232;-75
2022/05/05 08:56:14;;;;;;;10.70;9.70;;;;;;;20.77;50.72;98276.25;8500084;27;20230;-75
2022/05/05 09:00:23;;;;;;;9.63;8.63;;;;;;;20.86;50.28;98277.28;8499824;27;20231;-75
2022/05/05 09:04:28;;;;;;;11.27;8.93;;;;;;;20.97;50.54;98269.34;8490958;27;20231;-74
2022/05/05 09:08:33;;;;;;;11.43;10.33;;;;;;;20.96;50.49;98270.34;8499749;27;20237;-73
2022/05/05 09:12:36;;;;;;;13.87;8.57;;;;;;;21.15;50.48;98267.00;8499626;27;20244;-73
2022/05/05 09:16:48;;;;;;;13.93;9.40;;;;;;;21.33;49.69;98277.78;8499545;27;20232;-73
2022/05/05 09:20:51;;;;;;;11.13;9.17;;;;;;;21.47;49.50;98276.66;8498915;27;20236;-73
2022/05/05 09:24:56;;;;;;;12.50;9.10;;;;;;;21.95;48.31;98270.81;8499337;27;20235;-73
2022/05/05 09:28:59;;;;;;;10.83;9.80;;;;;;;22.03;48.04;98272.78;8499098;27;20287;-73
2022/05/05 09:33:05;;;;;;;12.60;8.47;;;;;;;21.77;48.75;98270.59;8498764;27;20242;-70
2022/05/05 09:37:21;;;;;;;17.63;10.20;;;;;;;21.71;47.45;98263.22;8492743;27;20233;-73
2022/05/05 09:41:25;;;;;;;15.00;10.10;;;;;;;22.31;46.17;98254.56;8498394;27;20236;-73
2022/05/05 09:45:30;;;;;;;14.00;9.03;;;;;;;22.65;45.36;98258.50;8490222;27;20362;-74
2022/05/05 09:49:35;;;;;;;10.20;9.10;;;;;;;23.06;45.13;98249.69;8470819;27;20233;-74
2022/05/05 09:58:00;;;;;;;8.30;6.83;;;;;;;23.34;42.75;98258.53;8515328;27;20272;-73
2022/05/05 10:02:09;;;;;;;6.67;5.93;;;;;;;23.84;41.81;98260.09;8509107;27;20247;-71
2022/05/05 10:06:23;;;;;;;8.30;6.53;;;;;;;22.72;40.51;98265.91;8477472;28;20228;-75
2022/05/05 10:10:30;;;;;;;11.43;6.70;;;;;;;22.45;43.33;98270.03;8479597;28;20237;-74
2022/05/05 10:14:33;;;;;;;5.87;4.90;;;;;;;23.06;41.50;98274.28;8481126;28;20237;-74
2022/05/05 10:18:38;;;;;;;8.13;5.80;;;;;;;22.94;40.10;98267.44;8489945;27;20233;-74
2022/05/05 10:22:49;;;;;;;12.87;5.57;;;;;;;22.74;43.97;98270.06;8492190;27;20528;-75
2022/05/05 10:26:54;;;;;;;7.87;7.07;;;;;;;23.03;42.63;98258.72;8492203;27;20226;-74
2022/05/05 10:30:57;;;;;;;8.10;5.60;;;;;;;23.47;40.33;98251.13;8492019;27;20229;-74
2022/05/05 10:35:09;;;;;;;6.30;5.70;;;;;;;23.93;40.68;98251.28;8492075;27;20229;-74
2022/05/05 10:39:18;;;;;;;7.07;4.63;;;;;;;23.53;40.70;98255.00;8492067;27;20248;-74
2022/05/05 10:43:32;;;;;;;7.47;5.00;;;;;;;23.11;42.78;98247.44;8492022;27;20244;-75
2022/05/05 10:48:16;;;;;;;8.33;5.50;;;;;;;22.77;41.93;98250.47;8491720;27;20483;-74
2022/05/05 10:52:30;;;;;;;8.83;4.70;;;;;;;22.75;43.72;98250.63;8491845;27;20232;-74
2022/05/05 10:56:38;;;;;;;5.20;4.20;;;;;;;23.04;42.21;98244.53;8491398;27;20233;-74
2022/05/05 11:00:42;;;;;;;4.80;4.10;;;;;;;23.61;40.85;98244.56;8491402;27;20237;-74
2022/05/05 11:04:44;;;;;;;6.87;4.90;;;;;;;23.88;39.91;98243.81;8491533;27;20221;-75
2022/05/05 11:08:54;;;;;;;5.93;4.63;;;;;;;23.75;39.96;98237.97;8491403;27;20237;-74
2022/05/05 11:12:59;;;;;;;5.97;4.73;;;;;;;23.27;40.90;98238.97;8491309;27;20420;-75
2022/05/05 11:21:35;;;;;;;7.17;5.40;;;;;;;23.65;40.05;98240.66;8490746;27;20524;-74
2022/05/05 11:25:41;;;;;;;6.70;5.37;;;;;;;23.26;42.04;98242.56;8491356;27;20239;-74
2022/05/05 11:29:51;;;;;;;5.87;5.33;;;;;;;23.26;41.76;98239.91;8486784;27;20241;-74
2022/05/05 11:33:56;;;;;;;9.13;5.70;;;;;;;23.19;41.00;98235.22;8485748;28;20236;-75
2022/05/05 11:38:00;;;;;;;6.13;5.17;;;;;;;23.20;41.08;98241.31;8485676;27;20229;-74
2022/05/05 11:42:06;;;;;;;6.10;5.33;;;;;;;23.36;41.61;98236.28;8484824;28;20233;-75
2022/05/05 11:46:11;;;;;;;6.87;5.50;;;;;;;23.47;40.84;98232.63;8502554;27;20250;-74
2022/05/05 11:50:14;;;;;;;6.93;5.47;;;;;;;23.99;38.81;98229.56;8501195;27;20220;-72
2022/05/05 11:54:27;;;;;;;8.23;5.93;;;;;;;24.18;38.15;98231.28;8509626;27;20238;-75
2022/05/05 12:02:56;;;;;;;8.57;5.40;;;;;;;24.38;37.34;98224.88;8505524;27;20396;-76
2022/05/05 12:06:59;;;;;;;6.37;4.47;;;;;;;23.96;38.97;98214.81;8490708;27;20234;-75
2022/05/05 12:11:05;;;;;;;10.33;5.57;;;;;;;23.54;40.34;98217.88;8467500;27;20245;-75
2022/05/05 12:15:10;;;;;;;6.87;4.70;;;;;;;23.70;38.34;98222.53;8468668;27;20238;-75
2022/05/05 12:19:17;;;;;;;8.50;4.50;;;;;;;23.81;38.59;98217.09;8484462;27;20315;-75
2022/05/05 12:23:40;;;;;;;6.30;4.53;;;;;;;23.21;36.04;98212.13;8517714;27;20233;-75
2022/05/05 12:27:44;;;;;;;6.47;4.50;;;;;;;23.69;36.94;98217.41;8518245;27;20526;-76
2022/05/05 12:31:55;;;;;;;6.37;4.27;;;;;;;23.42;37.62;98211.94;8497477;27;20234;-75
2022/05/05 12:36:14;;;;;;;6.77;4.67;;;;;;;23.66;38.79;98205.31;8483913;27;20279;-75
2022/05/05 12:40:17;;;;;;;7.27;4.30;;;;;;;23.91;39.15;98209.16;8482376;28;20229;-75
2022/05/05 12:44:20;;;;;;;4.87;4.23;;;;;;;24.05;37.96;98207.81;8483406;27;20233;-75
2022/05/05 12:48:26;;;;;;;4.77;4.03;;;;;;;23.62;38.53;98204.75;8491522;27;20240;-76
2022/05/05 13:01:30;;;;;;;5.10;4.00;;;;;;;23.71;37.73;98197.78;8486975;27;20228;-75
2022/05/05 13:05:34;;;;;;;4.63;3.50;;;;;;;24.16;37.16;98193.53;8482748;27;20538;-74
2022/05/05 13:09:38;;;;;;;4.97;3.80;;;;;;;23.55;37.37;98192.25;8482566;27;20228;-74
2022/05/05 13:13:41;;;;;;;5.53;3.83;;;;;;;23.32;38.55;98186.50;8482517;27;20236;-74
2022/05/05 13:17:44;;;;;;;5.27;3.70;;;;;;;23.34;40.12;98180.13;8482568;27;20397;-75
2022/05/05 13:21:47;;;;;;;4.87;3.90;;;;;;;24.07;37.06;98175.94;8482302;28;20534;-75
2022/05/05 13:25:53;;;;;;;6.40;3.37;;;;;;;24.40;36.26;98177.91;8482097;28;20225;-74
2022/05/05 13:29:56;;;;;;;4.93;3.40;;;;;;;24.89;36.06;98176.72;8482020;28;20234;-74
2022/05/05 13:33:59;;;;;;;6.97;3.40;;;;;;;24.53;35.71;98174.94;8481959;28;20294;-74
2022/05/05 13:38:03;;;;;;;8.13;4.00;;;;;;;23.87;38.49;98170.72;8481814;28;20229;-73
2022/05/05 13:42:08;;;;;;;9.60;3.67;;;;;;;23.64;39.38;98166.78;8481433;28;20552;-73
2022/05/05 13:46:11;;;;;;;5.40;3.40;;;;;;;23.16;38.83;98165.97;8481600;28;20253;-73
2022/05/05 13:50:15;;;;;;;10.03;3.60;;;;;;;23.15;40.52;98164.28;8481384;28;20239;-73
2022/05/05 13:54:20;;;;;;;4.30;3.20;;;;;;;23.09;36.58;98157.78;8481398;28;20540;-73
2022/05/05 13:58:25;;;;;;;4.67;3.33;;;;;;;24.04;35.88;98157.69;8489499;27;20232;-74
2022/05/05 14:02:28;;;;;;;4.33;2.90;;;;;;;24.03;35.14;98158.66;8505523;27;20238;-74
2022/05/05 14:06:31;;;;;;;3.40;2.47;;;;;;;23.96;35.35;98147.88;8481026;28;20339;-74
2022/05/05 14:14:57;;;;;;;3.83;3.00;;;;;;;23.85;36.68;98161.28;8480943;28;20225;-74
2022/05/05 14:19:00;;;;;;;2.60;2.40;;;;;;;24.11;37.17;98158.78;8480851;28;20237;-75
2022/05/05 14:23:03;;;;;;;3.63;2.93;;;;;;;23.25;37.03;98154.56;8480686;28;20243;-75
2022/05/05 14:27:07;;;;;;;6.10;3.10;;;;;;;23.07;39.07;98156.25;8480515;28;20225;-71
2022/05/05 14:31:12;;;;;;;6.50;3.40;;;;;;;22.87;38.77;98150.16;8480823;28;20234;-73
2022/05/05 14:35:15;;;;;;;8.20;3.50;;;;;;;22.69;39.74;98148.22;8480533;28;20233;-74
2022/05/05 14:39:18;;;;;;;8.67;3.57;;;;;;;22.50;40.36;98153.50;8480585;28;20218;-74
2022/05/05 14:43:21;;;;;;;5.37;3.57;;;;;;;22.33;39.15;98145.31;8480395;28;20229;-74
2022/05/05 14:47:26;;;;;;;5.93;3.20;;;;;;;22.52;40.16;98151.56;8480088;28;20229;-74
2022/05/05 14:51:29;;;;;;;10.60;3.80;;;;;;;22.59;41.67;98152.69;8480402;28;20229;-74
2022/05/05 14:55:32;;;;;;;6.40;3.67;;;;;;;22.72;40.96;98155.03;8480543;28;20230;-74
2022/05/05 14:59:35;;;;;;;5.70;3.10;;;;;;;22.65;40.48;98149.47;8479314;27;20236;-71
2022/05/05 15:03:39;;;;;;;6.93;3.70;;;;;;;22.72;40.83;98147.13;8481734;28;20433;-74
2022/05/05 15:07:43;;;;;;;6.50;3.17;;;;;;;23.16;38.72;98144.84;8486551;27;20428;-74
2022/05/05 15:11:46;;;;;;;4.40;3.10;;;;;;;22.79;38.56;98142.91;8486202;28;20229;-75
2022/05/05 15:15:49;;;;;;;7.70;3.30;;;;;;;22.77;38.87;98147.50;8486733;28;20522;-75
2022/05/05 15:19:54;;;;;;;10.90;3.97;;;;;;;22.67;40.72;98146.69;8486396;28;20247;-75
2022/05/05 15:23:58;;;;;;;6.27;3.10;;;;;;;22.61;39.78;98153.38;8486185;27;20283;-75
2022/05/05 15:28:02;;;;;;;5.00;2.90;;;;;;;22.48;37.98;98144.91;8486194;27;20229;-75
2022/05/05 15:32:06;;;;;;;3.83;3.13;;;;;;;22.44;38.09;98149.63;8486036;27;20241;-75
2022/05/05 15:36:11;;;;;;;4.53;2.90;;;;;;;22.44;38.46;98146.97;8485676;28;20236;-75
2022/05/05 15:40:18;;;;;;;5.37;3.40;;;;;;;22.29;40.10;98148.38;8485779;28;20225;-75
2022/05/05 15:44:21;;;;;;;5.07;3.70;;;;;;;22.23;39.05;98147.06;8485576;27;20233;-75
2022/05/05 15:48:24;;;;;;;4.70;3.53;;;;;;;22.13;39.85;98154.97;8493885;27;20409;-75
2022/05/05 15:52:29;;;;;;;39.73;14.00;;;;;;;22.01;41.08;98151.63;8502152;27;20268;-75
2022/05/05 15:56:32;;;;;;;14.37;6.43;;;;;;;21.99;41.73;98161.47;8502272;27;20225;-74
2022/05/05 16:00:36;;;;;;;13.43;5.73;;;;;;;21.98;39.83;98151.88;8518720;27;20231;-74
2022/05/05 16:04:39;;;;;;;14.30;6.47;;;;;;;22.25;41.80;98161.00;8518968;27;20245;-74
2022/05/05 16:08:44;;;;;;;14.17;6.30;;;;;;;22.13;42.98;98162.06;8509227;27;20233;-74
2022/05/05 16:12:47;;;;;;;10.63;5.20;;;;;;;22.16;41.63;98161.78;8484422;28;20240;-77
2022/05/05 16:16:50;;;;;;;11.07;4.47;;;;;;;22.05;41.18;98160.09;8484191;27;20225;-75
2022/05/05 16:21:00;;;;;;;11.83;4.70;;;;;;;21.92;41.44;98159.53;8484228;27;20233;-75
2022/05/05 16:33:52;;;;;;;15.23;5.03;;;;;;;21.62;43.42;98184.94;8483869;27;20512;-75
2022/05/05 16:37:55;;;;;;;10.97;5.07;;;;;;;21.58;43.32;98186.19;8483459;27;20237;-74
2022/05/05 16:42:01;;;;;;;11.80;5.20;;;;;;;21.60;45.91;98194.78;8483194;27;20295;-76
2022/05/05 16:46:04;;;;;;;8.70;4.83;;;;;;;21.31;43.92;98194.63;8482738;27;20296;-75
2022/05/05 16:50:08;;;;;;;14.63;5.37;;;;;;;21.17;44.66;98203.66;8483154;28;20281;-76
2022/05/05 16:54:11;;;;;;;12.83;5.97;;;;;;;21.21;45.86;98211.19;8482957;27;20233;-75
2022/05/05 16:58:16;;;;;;;16.03;5.57;;;;;;;21.25;46.96;98201.25;8494201;27;20235;-75
2022/05/05 17:02:19;;;;;;;9.57;5.37;;;;;;;20.99;45.18;98206.88;8499813;27;20432;-75
2022/05/05 17:06:22;;;;;;;12.47;6.70;;;;;;;20.94;44.20;98216.13;8516129;27;20236;-75
2022/05/05 17:10:26;;;;;;;10.97;6.67;;;;;;;20.99;49.42;98212.13;8516265;27;20247;-75
2022/05/05 17:14:31;;;;;;;17.33;7.67;;;;;;;21.27;49.73;98217.75;8516323;27;20253;-75
2022/05/05 17:18:34;;;;;;;13.20;6.53;;;;;;;20.94;47.70;98222.22;8516462;27;20228;-74
2022/05/05 17:22:37;;;;;;;16.77;6.60;;;;;;;21.18;47.58;98226.41;8516127;27;20239;-75
2022/05/05 17:26:40;;;;;;;12.20;6.17;;;;;;;21.06;47.17;98226.47;8515323;27;20235;-76
2022/05/05 17:30:46;;;;;;;16.37;6.43;;;;;;;20.96;47.73;98233.47;8486653;27;20232;-76
2022/05/05 17:34:49;;;;;;;12.53;5.43;;;;;;;20.72;47.21;98230.22;8481592;28;20520;-75
2022/05/05 17:38:52;;;;;;;17.27;7.50;;;;;;;20.87;51.52;98236.84;8481652;27;20548;-75
2022/05/05 17:42:55;;;;;;;11.57;6.10;;;;;;;20.62;45.52;98238.00;8481300;27;20280;-75
2022/05/05 17:51:20;;;;;;;7.83;5.43;;;;;;;20.68;46.85;98248.88;8481225;27;20230;-72
2022/05/05 17:55:24;;;;;;;9.37;5.00;;;;;;;20.61;44.19;98260.03;8480711;28;20225;-73
2022/05/05 17:59:29;;;;;;;12.47;5.47;;;;;;;20.53;49.55;98254.53;8480889;28;20234;-73
2022/05/05 18:03:43;;;;;;;7.17;4.30;;;;;;;20.28;44.25;98261.75;8507762;27;20233;-74
2022/05/05 18:07:46;;;;;;;5.07;4.27;;;;;;;20.10;44.42;98258.78;8514996;27;20223;-75
2022/05/05 18:11:49;;;;;;;7.27;4.63;;;;;;;19.89;44.75;98269.19;8514814;27;20238;-74
2022/05/05 18:15:54;;;;;;;4.67;4.27;;;;;;;19.92;45.18;98282.91;8514898;27;20222;-74
2022/05/05 18:19:59;;;;;;;6.47;4.50;;;;;;;19.85;45.06;98279.09;8515108;27;20235;-75
2022/05/05 18:24:03;;;;;;;6.47;4.80;;;;;;;19.65;45.33;98280.59;8514959;27;20238;-75
2022/05/05 18:28:07;;;;;;;7.20;4.83;;;;;;;19.61;46.14;98284.44;8514927;27;20236;-75
2022/05/05 18:32:11;;;;;;;5.60;5.00;;;;;;;19.70;45.89;98290.75;8514500;27;20217;-75
2022/05/05 18:36:15;;;;;;;7.13;5.10;;;;;;;19.50;46.13;98300.16;8481799;27;20250;-75
2022/05/05 18:40:18;;;;;;;6.50;4.70;;;;;;;19.58;45.97;98300.41;8503211;27;20229;-74
2022/05/05 18:44:21;;;;;;;9.30;5.20;;;;;;;19.45;46.34;98302.28;8521106;27;20224;-74
2022/05/05 18:48:26;;;;;;;6.80;4.80;;;;;;;19.52;46.06;98304.34;8503425;27;20227;-73
2022/05/05 18:52:36;;;;;;;5.83;4.37;;;;;;;19.49;46.22;98308.97;8488526;27;20231;-75
2022/05/05 18:56:44;;;;;;;6.37;4.57;;;;;;;19.48;46.33;98316.03;8497821;27;20283;-75
2022/05/05 19:00:48;;;;;;;6.20;4.40;;;;;;;19.52;46.16;98316.66;8458916;27;20417;-74
2022/05/05 19:04:53;;;;;;;5.93;4.43;;;;;;;19.53;46.22;98324.41;8482973;27;20541;-74
2022/05/05 19:08:59;;;;;;;9.67;4.40;;;;;;;19.54;46.19;98333.94;8494576;27;20263;-75
2022/05/05 19:13:02;;;;;;;7.37;4.70;;;;;;;19.54;47.30;98336.56;8486222;28;20247;-74
2022/05/05 19:17:06;;;;;;;22.20;7.93;;;;;;;19.54;50.83;98347.09;8486193;28;20232;-74
2022/05/05 19:21:09;;;;;;;9.37;6.20;;;;;;;19.33;52.99;98348.69;8485893;28;20535;-74
2022/05/05 19:25:14;;;;;;;7.17;5.80;;;;;;;19.33;53.57;98351.31;8506828;27;20236;-74
2022/05/05 19:29:17;;;;;;;6.40;5.67;;;;;;;19.28;52.43;98354.28;8519597;27;20230;-74
2022/05/05 19:33:21;;;;;;;8.50;6.00;;;;;;;19.19;54.73;98354.97;8519440;27;20234;-74
2022/05/05 19:37:24;;;;;;;8.30;5.80;;;;;;;18.95;53.03;98365.47;8518014;27;20501;-74
2022/05/05 19:41:32;;;;;;;8.93;5.73;;;;;;;19.03;55.05;98373.63;8518951;27;20411;-74
2022/05/05 19:45:35;;;;;;;7.00;6.30;;;;;;;18.87;54.83;98376.53;8488536;27;20233;-75
2022/05/05 19:49:38;;;;;;;6.73;5.87;;;;;;;18.86;54.61;98381.88;8517939;27;20234;-75
2022/05/05 19:53:41;;;;;;;7.77;5.30;;;;;;;18.81;53.86;98384.84;8518594;27;20227;-75
2022/05/05 20:02:06;;;;;;;7.13;6.20;;;;;;;18.72;55.38;98396.78;8517389;27;20244;-74
2022/05/05 20:10:32;;;;;;;6.53;5.87;;;;;;;18.60;55.37;98402.03;8502549;27;20551;-74
2022/05/05 20:14:36;;;;;;;5.80;5.20;;;;;;;18.65;55.12;98402.56;8513610;27;20228;-75